createdAt,value
2023-04-03T00:02:12.323Z,7.67
2023-04-03T00:04:43.233Z,7.60
2023-04-03T00:07:12.403Z,7.30
2023-04-03T00:09:41.715Z,7.50
2023-04-03T00:12:12.245Z,7.43
2023-04-03T00:14:44.489Z,7.40
2023-04-03T00:17:18.004Z,7.60
2023-04-03T00:19:48.309Z,7.33
2023-04-03T00:22:16.946Z,6.77
2023-04-03T00:24:50.170Z,7.47
2023-04-03T00:27:20.910Z,7.53
2023-04-03T00:29:50.764Z,7.30
2023-04-03T00:32:19.753Z,7.10
2023-04-03T00:34:49.753Z,7.50
2023-04-03T00:37:19.082Z,6.90
2023-04-03T00:39:49.121Z,6.60
2023-04-03T00:42:18.706Z,7.10
2023-04-03T00:44:49.270Z,7.70
2023-04-03T00:47:19.818Z,6.93
2023-04-03T00:49:48.560Z,7.70
2023-04-03T00:52:37.531Z,7.43
2023-04-03T00:55:09.922Z,8.03
2023-04-03T00:57:39.598Z,7.33
2023-04-03T01:00:10.970Z,7.70
2023-04-03T01:02:57.967Z,7.20
2023-04-03T01:05:27.202Z,7.30
2023-04-03T01:07:55.990Z,6.93
2023-04-03T01:10:24.448Z,7.23
2023-04-03T01:12:53.071Z,6.63
2023-04-03T01:15:27.658Z,6.00
2023-04-03T01:17:57.958Z,6.97
2023-04-03T01:20:44.052Z,6.40
2023-04-03T01:23:15.381Z,5.97
2023-04-03T01:25:54.907Z,5.47
2023-04-03T01:28:27.462Z,5.70
2023-04-03T01:31:14.130Z,5.27
2023-04-03T01:33:45.506Z,5.17
2023-04-03T01:36:20.362Z,6.13
2023-04-03T01:38:51.354Z,5.90
2023-04-03T01:41:22.903Z,5.50
2023-04-03T01:43:51.154Z,5.40
2023-04-03T01:46:19.724Z,5.70
2023-04-03T01:48:51.277Z,5.57
2023-04-03T01:51:20.157Z,5.73
2023-04-03T01:53:48.491Z,4.57
2023-04-03T01:56:19.366Z,5.57
2023-04-03T01:58:48.426Z,5.50
2023-04-03T02:01:21.466Z,5.27
2023-04-03T02:03:51.179Z,5.07
2023-04-03T02:06:19.365Z,5.70
2023-04-03T02:08:49.320Z,6.07
2023-04-03T02:11:17.852Z,5.97
2023-04-03T02:13:46.190Z,6.23
2023-04-03T02:16:15.044Z,6.20
2023-04-03T02:18:43.234Z,6.10
2023-04-03T02:21:17.002Z,6.37
2023-04-03T02:23:46.114Z,5.60
2023-04-03T02:26:16.515Z,6.00
2023-04-03T02:28:47.518Z,6.00
2023-04-03T02:31:19.399Z,6.57
2023-04-03T02:33:47.619Z,6.07
2023-04-03T02:36:16.242Z,6.30
2023-04-03T02:38:44.915Z,5.60
2023-04-03T02:41:18.024Z,5.60
2023-04-03T02:43:51.964Z,5.90
2023-04-03T02:46:20.240Z,5.23
2023-04-03T02:48:48.419Z,5.17
2023-04-03T02:51:19.513Z,5.47
2023-04-03T02:53:47.679Z,5.07
2023-04-03T02:56:16.166Z,4.67
2023-04-03T02:58:47.579Z,5.03
2023-04-03T03:01:16.866Z,4.13
2023-04-03T03:03:45.969Z,4.10
2023-04-03T03:06:18.096Z,4.20
2023-04-03T03:08:47.562Z,3.63
2023-04-03T03:11:16.081Z,3.80
2023-04-03T03:13:44.396Z,6.07
2023-04-03T03:16:12.837Z,4.00
2023-04-03T03:18:41.873Z,4.13
2023-04-03T03:21:14.118Z,4.37
2023-04-03T03:23:43.255Z,3.97
2023-04-03T03:26:12.623Z,4.37
2023-04-03T03:28:42.358Z,4.07
2023-04-03T03:31:15.616Z,4.50
2023-04-03T03:33:43.769Z,4.60
2023-04-03T03:36:12.282Z,4.37
2023-04-03T03:38:40.634Z,4.33
2023-04-03T03:41:08.762Z,4.40
2023-04-03T03:43:42.907Z,4.40
2023-04-03T03:46:11.236Z,5.23
2023-04-03T03:48:39.182Z,4.43
2023-04-03T03:51:07.611Z,4.33
2023-04-03T03:53:39.961Z,4.33
2023-04-03T03:56:11.827Z,4.67
2023-04-03T03:58:59.874Z,4.80
2023-04-03T04:01:27.963Z,4.40
2023-04-03T04:03:58.136Z,4.83
2023-04-03T04:06:27.632Z,5.93
2023-04-03T04:08:57.307Z,4.90
2023-04-03T04:11:26.303Z,5.13
2023-04-03T04:13:54.535Z,5.17
2023-04-03T04:16:25.469Z,4.80
2023-04-03T04:18:53.590Z,4.50
2023-04-03T04:21:25.484Z,4.67
2023-04-03T04:23:59.959Z,5.00
2023-04-03T04:26:29.716Z,4.70
2023-04-03T04:28:58.184Z,4.63
2023-04-03T04:31:27.035Z,4.50
2023-04-03T04:33:55.842Z,4.37
2023-04-03T04:36:26.737Z,4.20
2023-04-03T04:39:06.695Z,3.90
2023-04-03T04:41:35.790Z,4.30
2023-04-03T04:44:04.118Z,4.00
2023-04-03T04:46:33.542Z,3.57
2023-04-03T04:49:02.244Z,3.87
2023-04-03T04:51:40.996Z,4.20
2023-04-03T04:54:18.672Z,4.30
2023-04-03T04:56:51.975Z,4.30
2023-04-03T04:59:21.471Z,4.60
2023-04-03T05:01:50.039Z,3.60
2023-04-03T05:04:20.360Z,3.77
2023-04-03T05:06:49.051Z,3.37
2023-04-03T05:09:17.554Z,4.70
2023-04-03T05:11:48.469Z,3.60
2023-04-03T05:14:16.900Z,3.83
2023-04-03T05:16:45.055Z,4.57
2023-04-03T05:19:14.145Z,4.13
2023-04-03T05:21:44.206Z,4.67
2023-04-03T05:24:12.671Z,4.60
2023-04-03T05:26:41.123Z,3.90
2023-04-03T05:29:09.470Z,3.83
2023-04-03T05:31:38.211Z,4.20
2023-04-03T05:34:08.261Z,4.10
2023-04-03T05:36:36.964Z,4.23
2023-04-03T05:39:05.377Z,4.30
2023-04-03T05:41:34.003Z,4.47
2023-04-03T05:44:03.512Z,4.10
2023-04-03T05:46:31.778Z,4.10
2023-04-03T05:49:02.089Z,4.30
2023-04-03T05:51:36.963Z,3.93
2023-04-03T05:54:28.837Z,3.70
2023-04-03T05:56:57.466Z,3.20
2023-04-03T05:59:26.603Z,4.20
2023-04-03T06:01:59.227Z,3.50
2023-04-03T06:04:27.740Z,4.00
2023-04-03T06:06:58.866Z,3.73
2023-04-03T06:09:31.341Z,3.60
2023-04-03T06:12:02.026Z,3.80
2023-04-03T06:14:30.564Z,3.20
2023-04-03T06:17:01.951Z,3.90
2023-04-03T06:19:30.940Z,3.23
2023-04-03T06:21:59.155Z,3.13
2023-04-03T06:24:27.754Z,3.50
2023-04-03T06:26:56.294Z,3.63
2023-04-03T06:29:25.469Z,2.60
2023-04-03T06:31:56.342Z,3.80
2023-04-03T06:34:25.026Z,3.33
2023-04-03T06:36:54.036Z,3.37
2023-04-03T06:42:13.170Z,3.27
2023-04-03T06:44:41.635Z,3.60
2023-04-03T06:47:14.067Z,3.47
2023-04-03T06:49:44.062Z,3.00
2023-04-03T06:52:13.716Z,3.30
2023-04-03T06:54:44.711Z,3.63
2023-04-03T06:57:16.650Z,3.30
2023-04-03T06:59:44.919Z,3.53
2023-04-03T07:02:15.517Z,3.83
2023-04-03T07:04:43.901Z,3.50
2023-04-03T07:07:12.632Z,3.43
2023-04-03T07:09:41.571Z,2.90
2023-04-03T07:12:16.371Z,2.23
2023-04-03T07:14:45.174Z,2.07
2023-04-03T07:17:13.596Z,2.40
2023-04-03T07:19:45.709Z,2.03
2023-04-03T07:22:14.376Z,2.47
2023-04-03T07:24:42.763Z,2.63
2023-04-03T07:39:11.089Z,2.47
2023-04-03T07:41:41.687Z,2.20
2023-04-03T07:44:13.338Z,2.20
2023-04-03T07:46:42.216Z,2.00
2023-04-03T07:49:10.750Z,2.40
2023-04-03T07:51:43.194Z,3.07
2023-04-03T07:54:12.444Z,2.53
2023-04-03T07:56:40.926Z,3.30
2023-04-03T07:59:10.016Z,2.70
2023-04-03T08:01:40.427Z,3.33
2023-04-03T08:04:09.436Z,3.37
2023-04-03T08:06:47.358Z,3.40
2023-04-03T08:09:20.548Z,3.63
2023-04-03T08:11:54.759Z,3.50
2023-04-03T08:14:26.503Z,3.93
2023-04-03T08:17:05.774Z,4.57
2023-04-03T08:19:33.880Z,4.93
2023-04-03T08:22:04.335Z,3.93
2023-04-03T08:24:33.662Z,5.17
2023-04-03T08:27:02.277Z,4.50
2023-04-03T08:29:31.995Z,6.50
2023-04-03T08:32:02.327Z,6.00
2023-04-03T08:34:30.906Z,5.07
2023-04-03T08:37:03.518Z,6.07
2023-04-03T08:39:33.043Z,5.57
2023-04-03T08:42:08.576Z,5.23
2023-04-03T08:45:32.684Z,5.53
2023-04-03T08:48:53.536Z,6.13
2023-04-03T08:51:23.603Z,6.10
2023-04-03T08:53:59.915Z,6.10
2023-04-03T08:56:28.113Z,6.33
2023-04-03T08:59:07.137Z,5.97
2023-04-03T09:01:42.382Z,6.07
2023-04-03T09:04:19.876Z,6.10
2023-04-03T09:06:57.155Z,5.90
2023-04-03T09:09:34.276Z,6.27
2023-04-03T09:12:23.441Z,7.07
2023-04-03T09:14:57.570Z,6.07
2023-04-03T09:17:35.705Z,5.90
2023-04-03T09:20:14.600Z,5.90
2023-04-03T09:22:49.684Z,29.67
2023-04-03T09:25:24.920Z,12.13
2023-04-03T09:27:53.606Z,7.83
2023-04-03T09:30:32.744Z,9.10
2023-04-03T09:33:01.484Z,9.63
2023-04-03T09:35:44.763Z,9.57
2023-04-03T09:38:19.301Z,8.90
2023-04-03T09:40:52.210Z,7.30
2023-04-03T09:43:23.754Z,6.77
2023-04-03T09:45:53.298Z,5.63
2023-04-03T09:48:26.835Z,4.67
2023-04-03T09:51:06.927Z,5.87
2023-04-03T09:53:41.637Z,5.13
2023-04-03T09:56:17.497Z,4.10
2023-04-03T09:58:53.030Z,5.50
2023-04-03T10:01:34.411Z,4.50
2023-04-03T10:04:24.127Z,4.53
2023-04-03T10:06:56.249Z,5.27
2023-04-03T10:09:32.915Z,3.17
2023-04-03T10:12:11.793Z,3.40
2023-04-03T10:14:46.170Z,4.00
2023-04-03T10:17:43.828Z,4.03
2023-04-03T10:20:28.771Z,4.10
2023-04-03T10:23:24.686Z,3.40
2023-04-03T10:26:05.839Z,5.13
2023-04-03T10:29:14.604Z,3.60
2023-04-03T10:31:58.951Z,3.40
2023-04-03T10:34:36.881Z,3.00
2023-04-03T10:37:30.343Z,3.50
2023-04-03T10:40:12.505Z,3.20
2023-04-03T10:43:01.558Z,2.57
2023-04-03T10:46:05.013Z,2.53
2023-04-03T10:48:46.000Z,2.80
2023-04-03T10:51:40.742Z,2.77
2023-04-03T10:54:14.404Z,14.37
2023-04-03T10:57:08.582Z,3.50
2023-04-03T11:00:05.540Z,2.93
2023-04-03T11:03:00.308Z,3.00
2023-04-03T11:05:33.869Z,3.87
2023-04-03T11:08:36.518Z,2.30
2023-04-03T11:11:22.909Z,2.27
2023-04-03T11:14:10.287Z,1.87
2023-04-03T11:16:54.269Z,2.07
2023-04-03T11:19:51.367Z,2.57
2023-04-03T11:22:28.804Z,5.03
2023-04-03T11:25:14.107Z,11.27
2023-04-03T11:27:45.012Z,12.07
2023-04-03T11:30:22.496Z,13.10
2023-04-03T11:33:07.852Z,12.13
2023-04-03T11:35:39.708Z,10.33
2023-04-03T11:38:10.501Z,7.60
2023-04-03T11:40:41.706Z,7.37
2023-04-03T11:43:31.848Z,18.90
2023-04-03T11:46:05.281Z,11.37
2023-04-03T11:48:37.763Z,12.63
2023-04-03T11:51:13.959Z,10.17
2023-04-03T11:53:42.857Z,8.57
2023-04-03T11:56:25.132Z,6.43
2023-04-03T11:59:11.945Z,6.57
2023-04-03T12:01:46.524Z,7.07
2023-04-03T12:04:18.073Z,6.30
2023-04-03T12:06:46.796Z,6.30
2023-04-03T12:09:33.773Z,5.70
2023-04-03T12:12:22.690Z,6.03
2023-04-03T12:14:53.567Z,6.23
2023-04-03T12:17:29.849Z,7.60
2023-04-03T12:19:57.971Z,7.53
2023-04-03T12:22:26.129Z,11.93
2023-04-03T12:24:54.504Z,9.27
2023-04-03T12:27:38.526Z,9.30
2023-04-03T12:30:28.043Z,8.70
2023-04-03T12:33:19.455Z,7.80
2023-04-03T12:36:09.423Z,8.10
2023-04-03T12:39:21.511Z,8.20
2023-04-03T12:42:21.625Z,8.10
2023-04-03T12:45:16.706Z,8.53
2023-04-03T12:47:46.731Z,8.23
2023-04-03T12:50:34.090Z,8.27
2023-04-03T12:53:06.653Z,8.20
2023-04-03T12:55:34.656Z,8.63
2023-04-03T12:58:29.508Z,7.60
2023-04-03T13:01:16.187Z,8.87
2023-04-03T13:03:50.226Z,8.33
2023-04-03T13:06:32.454Z,8.23
2023-04-03T13:09:02.929Z,8.50
2023-04-03T13:11:39.569Z,7.57
2023-04-03T13:14:17.577Z,9.47
2023-04-03T13:17:00.286Z,9.27
2023-04-03T13:19:30.094Z,8.27
2023-04-03T13:22:22.915Z,8.60
2023-04-03T13:24:52.553Z,8.83
2023-04-03T13:27:22.897Z,8.37
2023-04-03T13:29:53.850Z,9.87
2023-04-03T13:32:39.995Z,18.23
2023-04-03T13:35:37.380Z,10.17
2023-04-03T13:38:26.033Z,10.60
2023-04-03T13:41:13.911Z,11.13
2023-04-03T13:43:43.163Z,9.13
2023-04-03T13:46:24.030Z,8.83
2023-04-03T13:48:55.002Z,8.93
2023-04-03T13:51:30.948Z,8.30
2023-04-03T13:54:26.797Z,8.37
2023-04-03T13:56:58.403Z,8.53
2023-04-03T13:59:37.212Z,7.90
2023-04-03T14:02:06.491Z,8.20
2023-04-03T14:04:38.429Z,7.90
2023-04-03T14:07:07.982Z,8.43
2023-04-03T14:09:40.072Z,8.13
2023-04-03T14:12:30.014Z,7.20
2023-04-03T14:15:27.945Z,7.00
2023-04-03T14:17:57.037Z,7.63
2023-04-03T14:20:28.117Z,8.20
2023-04-03T14:22:57.640Z,7.57
2023-04-03T14:25:26.972Z,7.20
2023-04-03T14:27:57.708Z,6.83
2023-04-03T14:30:30.381Z,8.03
2023-04-03T14:32:59.540Z,6.13
2023-04-03T14:35:28.171Z,6.77
2023-04-03T14:37:59.859Z,6.57
2023-04-03T14:40:29.168Z,6.80
2023-04-03T14:42:58.724Z,5.43
2023-04-03T14:45:27.890Z,5.10
2023-04-03T14:47:58.109Z,4.93
2023-04-03T14:50:28.092Z,4.97
2023-04-03T14:52:59.186Z,5.13
2023-04-03T14:55:29.056Z,5.13
2023-04-03T14:57:57.148Z,4.63
2023-04-03T15:00:33.768Z,4.40
2023-04-03T15:03:25.167Z,4.97
2023-04-03T15:05:54.333Z,6.00
2023-04-03T15:08:25.409Z,5.90
2023-04-03T15:10:54.662Z,6.27
2023-04-03T15:13:25.168Z,7.57
2023-04-03T15:15:53.496Z,6.83
2023-04-03T15:18:24.164Z,7.13
2023-04-03T15:20:52.298Z,6.70
2023-04-03T15:23:21.303Z,6.63
2023-04-03T15:25:51.844Z,11.37
2023-04-03T15:28:29.544Z,7.40
2023-04-03T15:30:58.159Z,16.40
2023-04-03T15:33:27.722Z,7.80
2023-04-03T15:36:02.954Z,7.30
2023-04-03T15:38:40.439Z,6.23
2023-04-03T15:41:08.985Z,7.10
2023-04-03T15:43:37.147Z,6.53
2023-04-03T15:46:09.288Z,6.53
2023-04-03T15:48:38.199Z,6.93
2023-04-03T15:51:09.706Z,6.87
2023-04-03T15:53:41.093Z,6.40
2023-04-03T15:56:11.099Z,7.07
2023-04-03T15:58:40.292Z,7.10
2023-04-03T16:01:10.310Z,6.90
2023-04-03T16:03:45.251Z,6.23
2023-04-03T16:06:17.360Z,7.70
2023-04-03T16:08:46.510Z,9.13
2023-04-03T16:11:16.387Z,8.33
2023-04-03T16:13:47.950Z,8.40
2023-04-03T16:16:16.630Z,8.70
2023-04-03T16:18:49.583Z,10.63
2023-04-03T16:21:22.425Z,10.87
2023-04-03T16:23:52.464Z,11.93
2023-04-03T16:26:25.223Z,19.43
2023-04-03T16:28:54.991Z,18.50
2023-04-03T16:31:24.753Z,17.37
2023-04-03T16:33:53.839Z,17.93
2023-04-03T16:36:22.235Z,23.33
2023-04-03T16:38:51.154Z,22.30
2023-04-03T16:41:19.431Z,25.40
2023-04-03T16:43:47.329Z,27.87
2023-04-03T16:46:15.800Z,29.43
2023-04-03T16:48:43.801Z,30.73
2023-04-03T16:51:16.427Z,31.07
2023-04-03T16:53:45.079Z,27.37
2023-04-03T16:56:16.568Z,24.87
2023-04-03T16:58:50.133Z,25.07
2023-04-03T17:01:23.913Z,24.20
2023-04-03T17:03:55.949Z,24.70
2023-04-03T17:06:25.563Z,22.20
2023-04-03T17:08:55.222Z,25.80
2023-04-03T17:11:24.578Z,24.20
2023-04-03T17:13:55.777Z,26.47
2023-04-03T17:16:24.162Z,30.13
2023-04-03T17:18:54.686Z,29.37
2023-04-03T17:21:28.042Z,28.60
2023-04-03T17:24:02.643Z,28.67
2023-04-03T17:26:34.169Z,27.83
2023-04-03T17:29:02.222Z,28.77
2023-04-03T17:31:31.111Z,31.27
2023-04-03T17:34:02.354Z,32.07
2023-04-03T17:36:35.882Z,34.47
2023-04-03T17:39:06.805Z,38.23
2023-04-03T17:41:35.867Z,37.57
2023-04-03T17:44:07.489Z,40.73
2023-04-03T17:46:38.196Z,40.20
2023-04-03T17:49:06.451Z,39.17
2023-04-03T17:51:34.782Z,51.20
2023-04-03T17:54:05.761Z,41.33
2023-04-03T17:56:34.192Z,39.67
2023-04-03T17:59:03.049Z,38.93
2023-04-03T18:01:35.115Z,38.60
2023-04-03T18:04:08.032Z,40.33
2023-04-03T18:06:44.362Z,40.00
2023-04-03T18:09:19.326Z,39.43
2023-04-03T18:11:53.330Z,38.53
2023-04-03T18:14:26.367Z,40.27
2023-04-03T18:16:57.987Z,38.77
2023-04-03T18:19:29.771Z,37.70
2023-04-03T18:22:05.501Z,37.23
2023-04-03T18:24:36.695Z,37.20
2023-04-03T18:27:16.110Z,35.33
2023-04-03T18:29:48.129Z,34.77
2023-04-03T18:32:20.034Z,36.73
2023-04-03T18:34:48.389Z,30.60
2023-04-03T18:37:21.437Z,32.50
2023-04-03T18:39:50.196Z,37.20
2023-04-03T18:42:24.251Z,31.50
2023-04-03T18:44:57.939Z,30.17
2023-04-03T18:47:31.148Z,29.73
2023-04-03T18:50:02.241Z,31.60
2023-04-03T18:52:31.206Z,31.10
2023-04-03T18:55:28.750Z,27.53
2023-04-03T18:58:01.723Z,26.90
2023-04-03T19:00:34.102Z,26.03
2023-04-03T19:03:19.126Z,24.70
2023-04-03T19:05:47.628Z,26.53
2023-04-03T19:08:16.258Z,24.27
2023-04-03T19:10:44.622Z,21.47
2023-04-03T19:13:12.914Z,22.50
2023-04-03T19:15:42.584Z,21.37
2023-04-03T19:18:10.992Z,20.33
2023-04-03T19:20:48.191Z,19.30
2023-04-03T19:23:17.861Z,18.63
2023-04-03T19:25:46.328Z,17.07
2023-04-03T19:28:14.962Z,17.90
2023-04-03T19:30:44.010Z,17.40
2023-04-03T19:33:14.806Z,15.63
2023-04-03T19:35:43.384Z,16.23
2023-04-03T19:38:13.937Z,16.60
2023-04-03T19:40:46.089Z,18.80
2023-04-03T19:43:15.586Z,18.57
2023-04-03T19:45:44.684Z,20.97
2023-04-03T19:48:16.685Z,19.07
2023-04-03T19:50:46.230Z,19.67
2023-04-03T19:53:19.172Z,18.80
2023-04-03T19:55:50.649Z,19.47
2023-04-03T19:58:18.872Z,19.33
2023-04-03T20:00:47.143Z,18.90
2023-04-03T20:03:16.553Z,20.43
2023-04-03T20:05:46.844Z,18.33
2023-04-03T20:08:19.949Z,19.03
2023-04-03T20:10:51.447Z,18.07
2023-04-03T20:13:23.047Z,19.73
2023-04-03T20:15:52.871Z,19.50
2023-04-03T20:18:22.562Z,19.20
2023-04-03T20:21:01.459Z,18.90
2023-04-03T20:23:30.482Z,18.07
2023-04-03T20:26:10.890Z,17.77
2023-04-03T20:28:43.993Z,18.37
2023-04-03T20:31:18.357Z,19.57
2023-04-03T20:33:49.077Z,22.43
2023-04-03T20:36:18.407Z,28.67
2023-04-03T20:38:48.305Z,32.83
2023-04-03T20:41:20.346Z,33.13
2023-04-03T20:43:52.223Z,40.80
2023-04-03T20:46:21.259Z,44.70
2023-04-03T20:48:49.662Z,47.93
2023-04-03T20:51:22.736Z,50.40
2023-04-03T20:53:53.921Z,54.57
2023-04-03T20:56:22.600Z,53.30
2023-04-03T20:58:58.433Z,40.40
2023-04-03T21:01:27.502Z,30.97
2023-04-03T21:04:06.211Z,25.23
2023-04-03T21:07:12.851Z,20.50
2023-04-03T21:10:19.110Z,16.73
2023-04-03T21:13:27.167Z,17.70
2023-04-03T21:15:56.110Z,15.67
2023-04-03T21:19:06.530Z,15.53
2023-04-03T21:21:36.816Z,16.03
2023-04-03T21:24:07.219Z,15.83
2023-04-03T21:26:38.939Z,15.33
2023-04-03T21:29:11.283Z,16.27
2023-04-03T21:31:54.054Z,15.80
2023-04-03T21:34:26.354Z,15.93
2023-04-03T21:37:13.221Z,17.77
2023-04-03T21:39:46.024Z,17.23
2023-04-03T21:42:14.490Z,24.23
2023-04-03T21:44:42.592Z,17.73
2023-04-03T21:47:12.110Z,17.40
2023-04-03T21:49:40.669Z,19.63
2023-04-03T21:52:35.345Z,26.87
2023-04-03T21:55:04.246Z,30.87
2023-04-03T21:57:37.108Z,32.47
2023-04-03T22:00:11.250Z,26.43
2023-04-03T22:03:09.934Z,27.47
2023-04-03T22:05:40.180Z,25.13
2023-04-03T22:08:09.929Z,25.00
2023-04-03T22:10:41.712Z,21.63
2023-04-03T22:13:10.897Z,20.17
2023-04-03T22:15:47.974Z,19.27
2023-04-03T22:18:18.505Z,19.07
2023-04-03T22:20:47.344Z,16.97
2023-04-03T22:23:15.868Z,16.53
2023-04-03T22:25:44.320Z,19.43
2023-04-03T22:28:13.980Z,16.47
2023-04-03T22:30:43.940Z,17.67
2023-04-03T22:33:12.517Z,16.77
2023-04-03T22:35:51.314Z,16.40
2023-04-03T22:38:20.337Z,17.57
2023-04-03T22:41:01.601Z,17.47
2023-04-03T22:43:31.809Z,16.40
2023-04-03T22:46:03.025Z,16.00
2023-04-03T22:48:34.402Z,16.47
2023-04-03T22:51:07.790Z,15.20
2023-04-03T22:53:36.288Z,16.97
2023-04-03T22:56:11.782Z,16.23
2023-04-03T22:58:41.100Z,15.37
2023-04-03T23:01:13.991Z,15.83
2023-04-03T23:03:43.581Z,15.60
2023-04-03T23:06:14.576Z,16.00
2023-04-03T23:08:46.163Z,16.60
2023-04-03T23:11:14.916Z,16.60
2023-04-03T23:13:45.496Z,15.77
2023-04-03T23:16:14.002Z,15.27
2023-04-03T23:18:44.060Z,15.20
2023-04-03T23:21:17.788Z,16.17
2023-04-03T23:23:46.716Z,15.77
2023-04-03T23:26:16.092Z,16.43
2023-04-03T23:28:45.265Z,16.97
2023-04-03T23:31:15.886Z,17.37
2023-04-03T23:33:44.855Z,17.47
2023-04-03T23:36:14.022Z,18.47
2023-04-03T23:38:43.460Z,18.40
2023-04-03T23:41:15.278Z,18.90
2023-04-03T23:43:43.673Z,18.97
2023-04-03T23:46:12.433Z,18.87
2023-04-03T23:48:41.085Z,17.63
2023-04-03T23:51:11.084Z,17.70
2023-04-03T23:53:41.382Z,18.93
2023-04-03T23:56:13.491Z,18.13
2023-04-03T23:58:43.551Z,18.33
